Princes Risborough, United Kingdom
Current Conditions -  °F | °C
As of 4:50 AM on Tuesday 21 Oct 2014 (Local Time) from EGUB Reporting Station
Light Rain Light Rain  
Wind Chill: 55°   Ceiling: 1800
Heat Index: 55°   Visibility: 6mi
Dew Point: 52°   Wind: 16mph
Humidity: 88%   Direction: 170°S
Pressure: 29.62"   Gusts: NA
Location:  51.73°N, 0.83°W
Report Text: EGUB 210350Z 17014KT 9000 -RA BKN018 OVC025 13/11 Q1003 WHT
Loading
Personal Weather Stations






























Interactive Weather Map
Tropical Storm Tracking
New forecast layout! Learn more

10-Day Weather Forecast

Advertisements
Track Severe Weather on mobile